createdAt,value
2023-05-22T00:00:14.038Z,27.30
2023-05-22T00:02:43.633Z,27.20
2023-05-22T00:05:15.613Z,27.20
2023-05-22T00:07:43.810Z,27.20
2023-05-22T00:10:11.972Z,27.20
2023-05-22T00:12:39.707Z,27.20
2023-05-22T00:15:08.421Z,27.20
2023-05-22T00:17:36.601Z,27.20
2023-05-22T00:20:06.872Z,27.10
2023-05-22T00:22:36.263Z,27.10
2023-05-22T00:25:04.227Z,27.10
2023-05-22T00:27:32.010Z,27.10
2023-05-22T00:29:59.859Z,27.10
2023-05-22T00:32:27.664Z,27.10
2023-05-22T00:34:55.696Z,27.00
2023-05-22T00:37:23.445Z,27.00
2023-05-22T00:39:52.494Z,27.00
2023-05-22T00:42:20.295Z,27.00
2023-05-22T00:44:48.579Z,27.00
2023-05-22T00:47:16.357Z,27.00
2023-05-22T00:49:44.126Z,27.00
2023-05-22T00:52:11.837Z,26.90
2023-05-22T00:54:39.572Z,26.90
2023-05-22T00:57:09.201Z,26.90
2023-05-22T00:59:37.129Z,26.90
2023-05-22T01:02:05.247Z,26.90
2023-05-22T01:04:33.355Z,26.90
2023-05-22T01:07:02.852Z,26.90
2023-05-22T01:09:31.023Z,26.90
2023-05-22T01:12:01.395Z,26.80
2023-05-22T01:14:35.073Z,26.80
2023-05-22T01:17:08.776Z,26.80
2023-05-22T01:20:04.148Z,26.80
2023-05-22T01:22:47.532Z,26.80
2023-05-22T01:25:26.595Z,26.80
2023-05-22T01:28:04.180Z,26.80
2023-05-22T01:30:48.556Z,26.80
2023-05-22T01:33:17.230Z,26.80
2023-05-22T01:35:48.760Z,26.70
2023-05-22T01:38:16.889Z,26.80
2023-05-22T01:40:45.651Z,26.70
2023-05-22T01:43:14.065Z,26.70
2023-05-22T01:45:41.838Z,26.70
2023-05-22T01:48:12.393Z,26.70
2023-05-22T01:50:40.941Z,26.70
2023-05-22T01:53:12.081Z,26.70
2023-05-22T01:55:45.204Z,26.70
2023-05-22T01:58:16.935Z,26.70
2023-05-22T02:00:45.934Z,26.70
2023-05-22T02:03:17.649Z,26.60
2023-05-22T02:05:45.573Z,26.70
2023-05-22T02:08:13.334Z,26.70
2023-05-22T02:10:42.763Z,26.60
2023-05-22T02:13:11.398Z,26.60
2023-05-22T02:15:39.183Z,26.60
2023-05-22T02:18:11.117Z,26.60
2023-05-22T02:20:40.489Z,26.60
2023-05-22T02:23:08.347Z,26.60
2023-05-22T02:25:36.086Z,26.60
2023-05-22T02:28:03.870Z,26.60
2023-05-22T02:30:31.822Z,26.60
2023-05-22T02:33:00.294Z,26.60
2023-05-22T02:35:28.455Z,26.60
2023-05-22T02:37:57.528Z,26.60
2023-05-22T02:40:25.456Z,26.60
2023-05-22T02:42:53.181Z,26.60
2023-05-22T02:45:21.389Z,26.60
2023-05-22T02:47:49.198Z,26.60
2023-05-22T02:50:17.115Z,26.50
2023-05-22T02:52:45.182Z,26.60
2023-05-22T02:55:14.266Z,26.50
2023-05-22T02:57:41.976Z,26.50
2023-05-22T03:00:11.671Z,26.50
2023-05-22T03:02:39.638Z,26.50
2023-05-22T03:05:08.068Z,26.50
2023-05-22T03:07:35.816Z,26.50
2023-05-22T03:10:03.560Z,26.50
2023-05-22T03:12:32.749Z,26.50
2023-05-22T03:15:00.501Z,26.50
2023-05-22T03:17:28.491Z,26.50
2023-05-22T03:19:56.253Z,26.50
2023-05-22T03:22:24.062Z,26.50
2023-05-22T03:24:52.348Z,26.50
2023-05-22T03:27:20.219Z,26.40
2023-05-22T03:29:51.704Z,26.40
2023-05-22T03:32:20.261Z,26.40
2023-05-22T03:34:48.100Z,26.40
2023-05-22T03:37:15.872Z,26.40
2023-05-22T03:39:43.616Z,26.40
2023-05-22T03:42:21.364Z,26.40
2023-05-22T03:44:49.289Z,26.30
2023-05-22T03:47:19.065Z,26.40
2023-05-22T03:49:47.121Z,26.40
2023-05-22T03:52:14.908Z,26.40
2023-05-22T03:54:42.649Z,26.40
2023-05-22T03:57:10.519Z,26.40
2023-05-22T03:59:38.246Z,26.40
2023-05-22T04:02:06.151Z,26.30
2023-05-22T04:04:38.567Z,26.40
2023-05-22T04:07:08.134Z,26.30
2023-05-22T04:09:36.429Z,26.30
2023-05-22T04:12:04.504Z,26.40
2023-05-22T04:14:32.606Z,26.30
2023-05-22T04:17:00.344Z,26.30
2023-05-22T04:19:29.996Z,26.30
2023-05-22T04:21:59.378Z,26.30
2023-05-22T04:24:27.546Z,26.30
2023-05-22T04:26:56.057Z,26.30
2023-05-22T04:29:24.256Z,26.30
2023-05-22T04:31:54.477Z,26.30
2023-05-22T04:34:22.581Z,26.30
2023-05-22T04:36:50.318Z,26.30
2023-05-22T04:39:20.167Z,26.30
2023-05-22T04:41:47.887Z,26.30
2023-05-22T04:44:15.739Z,26.20
2023-05-22T04:46:43.822Z,26.20
2023-05-22T04:49:11.700Z,26.30
2023-05-22T04:51:39.559Z,26.30
2023-05-22T04:54:07.332Z,26.30
2023-05-22T04:56:37.352Z,26.20
2023-05-22T04:59:08.695Z,26.20
2023-05-22T05:01:37.759Z,26.20
2023-05-22T05:04:06.180Z,26.20
2023-05-22T05:06:34.531Z,26.20
2023-05-22T05:09:03.156Z,26.20
2023-05-22T05:11:30.952Z,26.20
2023-05-22T05:14:00.159Z,26.20
2023-05-22T05:16:27.928Z,26.20
2023-05-22T05:18:55.745Z,26.20
2023-05-22T05:21:27.579Z,26.20
2023-05-22T05:23:56.017Z,26.20
2023-05-22T05:26:24.500Z,26.20
2023-05-22T05:28:52.303Z,26.20
2023-05-22T05:31:22.801Z,26.20
2023-05-22T05:34:10.049Z,26.20
2023-05-22T05:36:57.140Z,26.20
2023-05-22T05:39:25.012Z,26.20
2023-05-22T05:41:53.216Z,26.20
2023-05-22T05:44:21.406Z,26.20
2023-05-22T05:46:50.586Z,26.20
2023-05-22T05:49:20.235Z,26.20
2023-05-22T05:51:48.789Z,26.20
2023-05-22T05:54:17.657Z,26.20
2023-05-22T05:56:46.949Z,26.20
2023-05-22T05:59:14.734Z,26.20
2023-05-22T06:02:16.292Z,26.20
2023-05-22T06:04:48.226Z,26.20
2023-05-22T06:07:18.993Z,26.20
2023-05-22T06:09:49.346Z,26.20
2023-05-22T06:12:38.549Z,26.20
2023-05-22T06:15:07.682Z,26.20
2023-05-22T06:17:37.391Z,26.20
2023-05-22T06:20:07.137Z,26.20
2023-05-22T06:22:35.683Z,26.20
2023-05-22T06:25:03.916Z,26.20
2023-05-22T06:27:34.178Z,26.20
2023-05-22T06:30:04.510Z,26.20
2023-05-22T06:32:38.192Z,26.20
2023-05-22T06:35:08.011Z,26.20
2023-05-22T06:37:35.906Z,26.20
2023-05-22T06:40:04.368Z,26.20
2023-05-22T06:42:39.568Z,26.20
2023-05-22T06:45:25.438Z,26.20
2023-05-22T06:48:12.953Z,26.20
2023-05-22T06:50:53.928Z,26.20
2023-05-22T06:53:23.719Z,26.20
2023-05-22T06:55:51.809Z,26.20
2023-05-22T06:58:28.998Z,26.20
2023-05-22T07:00:56.875Z,26.20
2023-05-22T07:03:34.630Z,26.20
2023-05-22T07:06:25.658Z,26.20
2023-05-22T07:08:53.472Z,26.20
2023-05-22T07:11:21.748Z,26.10
2023-05-22T07:13:49.504Z,26.20
2023-05-22T07:16:17.401Z,26.20
2023-05-22T07:18:47.357Z,26.10
2023-05-22T07:21:15.688Z,26.20
2023-05-22T07:23:44.587Z,26.20
2023-05-22T07:26:12.405Z,26.20
2023-05-22T07:28:50.561Z,26.10
2023-05-22T07:31:18.331Z,26.20
2023-05-22T07:33:48.800Z,26.20
2023-05-22T07:36:18.963Z,26.20
2023-05-22T07:38:47.159Z,26.20
2023-05-22T07:41:15.414Z,26.20
2023-05-22T07:43:43.380Z,26.10
2023-05-22T07:46:14.467Z,26.10
2023-05-22T07:48:56.505Z,26.10
2023-05-22T07:51:24.238Z,26.10
2023-05-22T07:53:52.923Z,26.10
2023-05-22T07:56:20.655Z,26.10
2023-05-22T07:58:49.883Z,26.10
2023-05-22T08:01:20.461Z,26.20
2023-05-22T08:03:48.283Z,26.20
2023-05-22T08:06:17.818Z,26.20
2023-05-22T08:08:45.549Z,26.20
2023-05-22T08:11:13.528Z,26.20
2023-05-22T08:13:41.326Z,26.20
2023-05-22T08:16:09.837Z,26.20
2023-05-22T08:18:37.589Z,26.20
2023-05-22T08:21:05.551Z,26.20
2023-05-22T08:23:36.228Z,26.20
2023-05-22T08:26:04.119Z,26.20
2023-05-22T08:28:31.859Z,26.20
2023-05-22T08:30:59.559Z,26.20
2023-05-22T08:33:27.645Z,26.20
2023-05-22T08:35:55.579Z,26.20
2023-05-22T08:38:23.306Z,26.20
2023-05-22T08:40:52.402Z,26.20
2023-05-22T08:43:21.096Z,26.20
2023-05-22T08:45:49.246Z,26.20
2023-05-22T08:48:16.960Z,26.20
2023-05-22T08:50:44.713Z,26.20
2023-05-22T08:53:13.285Z,26.20
2023-05-22T08:55:41.015Z,26.20
2023-05-22T08:58:10.078Z,26.30
2023-05-22T09:00:37.998Z,26.30
2023-05-22T09:03:10.033Z,26.30
2023-05-22T09:05:39.120Z,26.30
2023-05-22T09:08:19.020Z,26.30
2023-05-22T09:10:48.463Z,26.30
2023-05-22T09:13:26.673Z,26.30
2023-05-22T09:15:54.403Z,26.40
2023-05-22T09:18:22.450Z,26.40
2023-05-22T09:20:50.777Z,26.40
2023-05-22T09:23:19.746Z,26.40
2023-05-22T09:25:47.645Z,26.40
2023-05-22T09:28:15.358Z,26.40
2023-05-22T09:30:44.543Z,26.40
2023-05-22T09:33:14.097Z,26.40
2023-05-22T09:35:42.138Z,26.40
2023-05-22T09:38:10.856Z,26.40
2023-05-22T09:40:40.439Z,26.40
2023-05-22T09:43:08.380Z,26.40
2023-05-22T09:45:36.245Z,26.40
2023-05-22T09:48:05.665Z,26.40
2023-05-22T09:50:33.540Z,26.50
2023-05-22T09:53:02.018Z,26.50
2023-05-22T09:55:29.779Z,26.40
2023-05-22T09:57:57.699Z,26.50
2023-05-22T10:00:26.069Z,26.50
2023-05-22T10:02:55.086Z,26.40
2023-05-22T10:05:24.753Z,26.40
2023-05-22T10:07:53.127Z,26.40
2023-05-22T10:10:22.124Z,26.40
2023-05-22T10:12:53.850Z,26.50
2023-05-22T10:15:21.999Z,26.50
2023-05-22T10:17:49.953Z,26.50
2023-05-22T10:20:17.799Z,26.50
2023-05-22T10:22:48.783Z,26.50
2023-05-22T10:25:18.142Z,26.50
2023-05-22T10:27:46.049Z,26.50
2023-05-22T10:30:26.730Z,26.50
2023-05-22T10:33:22.624Z,26.50
2023-05-22T10:35:52.195Z,26.50
2023-05-22T10:38:32.887Z,26.50
2023-05-22T10:41:00.736Z,26.50
2023-05-22T10:43:30.628Z,26.50
2023-05-22T10:46:03.121Z,26.50
2023-05-22T10:48:32.186Z,26.50
2023-05-22T10:51:00.623Z,26.50
2023-05-22T10:53:32.276Z,26.50
2023-05-22T10:56:02.407Z,26.60
2023-05-22T10:58:30.774Z,26.50
2023-05-22T11:01:13.136Z,26.60
2023-05-22T11:03:57.162Z,26.60
2023-05-22T11:06:32.447Z,26.60
2023-05-22T11:09:02.751Z,26.60
2023-05-22T11:11:30.455Z,26.50
2023-05-22T11:14:03.014Z,26.50
2023-05-22T11:16:32.944Z,26.60
2023-05-22T11:19:22.090Z,26.60
2023-05-22T11:21:51.343Z,26.60
2023-05-22T11:24:20.506Z,26.60
2023-05-22T11:27:01.892Z,26.60
2023-05-22T11:29:30.159Z,26.50
2023-05-22T11:31:58.238Z,26.50
2023-05-22T11:34:26.167Z,26.60
2023-05-22T11:36:54.075Z,26.60
2023-05-22T11:39:24.108Z,26.60
2023-05-22T11:41:51.857Z,26.60
2023-05-22T11:44:20.073Z,26.60
2023-05-22T11:46:48.035Z,26.60
2023-05-22T11:49:17.216Z,26.60
2023-05-22T11:51:45.123Z,26.60
2023-05-22T11:54:12.909Z,26.60
2023-05-22T11:56:42.440Z,26.60
2023-05-22T11:59:10.196Z,26.60
2023-05-22T12:01:38.008Z,26.60
2023-05-22T12:04:05.997Z,26.60
2023-05-22T12:06:34.095Z,26.60
2023-05-22T12:09:01.905Z,26.60
2023-05-22T12:11:29.651Z,26.70
2023-05-22T12:14:05.095Z,26.70
2023-05-22T12:16:35.240Z,26.70
2023-05-22T12:19:06.228Z,26.70
2023-05-22T12:21:34.136Z,26.60
2023-05-22T12:24:03.944Z,26.70
2023-05-22T12:26:31.986Z,26.60
2023-05-22T12:28:59.764Z,26.60
2023-05-22T12:31:28.871Z,26.60
2023-05-22T12:33:56.751Z,26.60
2023-05-22T12:36:33.845Z,26.60
2023-05-22T12:39:01.639Z,26.60
2023-05-22T12:41:29.360Z,26.60
2023-05-22T12:43:57.081Z,26.60
2023-05-22T12:46:24.832Z,26.60
2023-05-22T12:48:55.358Z,26.60
2023-05-22T12:51:24.032Z,26.60
2023-05-22T12:53:51.738Z,26.60
2023-05-22T12:56:19.453Z,26.60
2023-05-22T12:58:47.189Z,26.60
2023-05-22T13:01:14.935Z,26.70
2023-05-22T13:03:42.683Z,26.60
2023-05-22T13:06:12.248Z,26.70
2023-05-22T13:08:40.060Z,26.70
2023-05-22T13:11:07.788Z,26.70
2023-05-22T13:13:35.526Z,26.70
2023-05-22T13:16:03.251Z,26.70
2023-05-22T13:18:31.105Z,26.60
2023-05-22T13:21:00.129Z,26.60
2023-05-22T13:23:29.195Z,26.60
2023-05-22T13:25:56.972Z,26.60
2023-05-22T13:28:24.694Z,26.60
2023-05-22T13:30:52.428Z,26.60
2023-05-22T13:33:20.259Z,26.50
2023-05-22T13:35:48.395Z,26.50
2023-05-22T13:38:17.399Z,26.50
2023-05-22T13:40:48.449Z,26.50
2023-05-22T13:43:16.579Z,26.50
2023-05-22T13:45:44.344Z,26.50
2023-05-22T13:48:12.243Z,26.50
2023-05-22T13:50:40.428Z,26.50
2023-05-22T13:53:08.211Z,26.50
2023-05-22T13:55:36.629Z,26.50
2023-05-22T13:58:06.037Z,26.40
2023-05-22T14:00:33.794Z,26.50
2023-05-22T14:03:01.699Z,26.50
2023-05-22T14:05:29.556Z,26.50
2023-05-22T14:07:57.283Z,26.50
2023-05-22T14:10:25.073Z,26.50
2023-05-22T14:12:52.793Z,26.50
2023-05-22T14:15:21.923Z,26.50
2023-05-22T14:17:50.311Z,26.40
2023-05-22T14:20:18.227Z,26.50
2023-05-22T14:22:57.090Z,26.40
2023-05-22T14:25:26.090Z,26.30
2023-05-22T14:27:53.908Z,26.40
2023-05-22T14:30:22.982Z,26.40
2023-05-22T14:32:50.870Z,26.30
2023-05-22T14:35:18.938Z,26.30
2023-05-22T14:37:46.842Z,26.30
2023-05-22T14:40:14.542Z,26.20
2023-05-22T14:42:42.473Z,26.20
2023-05-22T14:45:10.649Z,26.20
2023-05-22T14:47:40.703Z,26.20
2023-05-22T14:50:18.907Z,26.20
2023-05-22T14:52:47.788Z,26.20
2023-05-22T14:55:15.557Z,26.10
2023-05-22T14:57:43.276Z,26.10
2023-05-22T15:00:12.122Z,26.10
2023-05-22T15:02:41.293Z,26.10
2023-05-22T15:05:10.188Z,26.10
2023-05-22T15:07:44.495Z,26.10
2023-05-22T15:10:12.998Z,26.10
2023-05-22T15:12:40.851Z,26.00
2023-05-22T15:15:09.718Z,26.10
2023-05-22T15:17:38.206Z,26.00
2023-05-22T15:20:09.175Z,26.00
2023-05-22T15:22:36.890Z,26.00
2023-05-22T15:25:08.388Z,26.00
2023-05-22T15:27:36.356Z,26.00
2023-05-22T15:30:04.743Z,26.00
2023-05-22T15:32:33.016Z,26.00
2023-05-22T15:35:00.883Z,26.00
2023-05-22T15:37:32.557Z,26.00
2023-05-22T15:40:01.110Z,26.00
2023-05-22T15:42:28.861Z,26.00
2023-05-22T15:44:56.611Z,25.90
2023-05-22T15:47:24.354Z,26.00
2023-05-22T15:49:52.181Z,25.90
2023-05-22T15:52:20.980Z,25.90
2023-05-22T15:54:50.040Z,25.90
2023-05-22T15:57:17.791Z,25.90
2023-05-22T15:59:47.007Z,25.90
2023-05-22T16:02:14.983Z,25.80
2023-05-22T16:04:42.776Z,25.80
2023-05-22T16:07:10.672Z,25.80
2023-05-22T16:09:38.382Z,25.80
2023-05-22T16:12:07.697Z,25.80
2023-05-22T16:14:35.404Z,25.80
2023-05-22T16:17:03.869Z,25.80
2023-05-22T16:19:33.362Z,25.80
2023-05-22T16:22:01.406Z,25.80
2023-05-22T16:24:29.105Z,25.80
2023-05-22T16:26:57.254Z,25.70
2023-05-22T16:29:26.369Z,25.70
2023-05-22T16:31:54.106Z,25.70
2023-05-22T16:34:21.832Z,25.70
2023-05-22T16:36:49.567Z,25.70
2023-05-22T16:39:17.283Z,25.80
2023-05-22T16:41:45.153Z,25.70
2023-05-22T16:44:13.013Z,25.70
2023-05-22T16:46:42.098Z,25.70
2023-05-22T16:49:09.906Z,25.70
2023-05-22T16:51:37.642Z,25.60
2023-05-22T16:54:05.621Z,25.60
2023-05-22T16:56:34.044Z,25.70
2023-05-22T16:59:01.850Z,25.60
2023-05-22T17:01:29.795Z,25.60
2023-05-22T17:03:58.889Z,25.60
2023-05-22T17:06:27.526Z,25.60
2023-05-22T17:08:56.096Z,25.60
2023-05-22T17:11:25.894Z,25.60
2023-05-22T17:13:53.646Z,25.60
2023-05-22T17:16:21.597Z,25.60
2023-05-22T17:18:49.404Z,25.60
2023-05-22T17:21:19.893Z,25.60
2023-05-22T17:23:47.605Z,25.60
2023-05-22T17:26:15.604Z,25.60
2023-05-22T17:28:43.388Z,25.50
2023-05-22T17:31:11.322Z,25.60
2023-05-22T17:33:39.069Z,25.60
2023-05-22T17:36:06.948Z,25.50
2023-05-22T17:38:36.392Z,25.60
2023-05-22T17:41:04.216Z,25.60
2023-05-22T17:43:34.946Z,25.50
2023-05-22T17:46:03.057Z,25.50
2023-05-22T17:48:30.832Z,25.50
2023-05-22T17:50:59.345Z,25.50
2023-05-22T17:53:31.934Z,25.50
2023-05-22T17:56:01.032Z,25.60
2023-05-22T17:58:28.857Z,25.50
2023-05-22T18:00:56.546Z,25.50
2023-05-22T18:03:24.303Z,25.50
2023-05-22T18:05:52.192Z,25.50
2023-05-22T18:08:21.185Z,25.40
2023-05-22T18:10:49.341Z,25.50
2023-05-22T18:13:19.206Z,25.40
2023-05-22T18:15:48.186Z,25.40
2023-05-22T18:18:16.265Z,25.40
2023-05-22T18:20:44.266Z,25.40
2023-05-22T18:23:11.977Z,25.40
2023-05-22T18:25:39.722Z,25.40
2023-05-22T18:28:08.150Z,25.40
2023-05-22T18:30:37.271Z,25.40
2023-05-22T18:33:05.147Z,25.40
2023-05-22T18:35:32.872Z,25.40
2023-05-22T18:38:00.733Z,25.40
2023-05-22T18:40:28.452Z,25.40
2023-05-22T18:42:56.174Z,25.40
2023-05-22T18:45:23.985Z,25.40
2023-05-22T18:47:53.268Z,25.30
2023-05-22T18:50:23.420Z,25.40
2023-05-22T18:52:51.493Z,25.30
2023-05-22T18:55:19.196Z,25.40
2023-05-22T18:57:46.929Z,25.40
2023-05-22T19:00:15.110Z,25.30
2023-05-22T19:02:42.893Z,25.30
2023-05-22T19:05:12.318Z,25.30
2023-05-22T19:07:40.085Z,25.40
2023-05-22T19:10:09.070Z,25.30
2023-05-22T19:12:36.775Z,25.30
2023-05-22T19:15:05.522Z,25.30
2023-05-22T19:17:33.292Z,25.20
2023-05-22T19:20:01.064Z,25.30
2023-05-22T19:22:30.138Z,25.30
2023-05-22T19:24:57.842Z,25.20
2023-05-22T19:27:26.017Z,25.30
2023-05-22T19:29:53.745Z,25.30
2023-05-22T19:32:21.490Z,25.20
2023-05-22T19:34:49.194Z,25.20
2023-05-22T19:37:16.899Z,25.20
2023-05-22T19:39:45.920Z,25.20
2023-05-22T19:42:13.630Z,25.20
2023-05-22T19:44:41.352Z,25.20
2023-05-22T19:47:09.089Z,25.20
2023-05-22T19:49:37.268Z,25.20
2023-05-22T19:52:05.702Z,25.20
2023-05-22T19:54:33.464Z,25.20
2023-05-22T19:57:02.928Z,25.20
2023-05-22T19:59:30.690Z,25.20
2023-05-22T20:01:58.461Z,25.20
2023-05-22T20:04:26.215Z,25.10
2023-05-22T20:06:54.017Z,25.20
2023-05-22T20:09:21.787Z,25.20
2023-05-22T20:11:49.532Z,25.00
2023-05-22T20:14:18.589Z,25.00
2023-05-22T20:16:46.651Z,25.10
2023-05-22T20:19:15.146Z,25.10
2023-05-22T20:21:42.988Z,25.10
2023-05-22T20:24:12.150Z,25.10
2023-05-22T20:26:39.844Z,25.10
2023-05-22T20:29:07.721Z,25.00
2023-05-22T20:31:37.063Z,25.00
2023-05-22T20:34:04.923Z,25.00
2023-05-22T20:36:33.354Z,24.90
2023-05-22T20:39:01.226Z,25.00
2023-05-22T20:41:28.986Z,25.00
2023-05-22T20:43:58.448Z,24.90
2023-05-22T20:46:26.770Z,24.90
2023-05-22T20:48:56.325Z,24.90
2023-05-22T20:51:32.656Z,24.90
2023-05-22T20:54:00.763Z,24.90
2023-05-22T20:56:28.860Z,24.90
2023-05-22T20:58:56.661Z,24.80
2023-05-22T21:01:24.836Z,24.90
2023-05-22T21:03:52.567Z,24.90
2023-05-22T21:06:21.746Z,24.90
2023-05-22T21:08:50.496Z,24.90
2023-05-22T21:11:20.838Z,24.80
2023-05-22T21:13:48.567Z,24.80
2023-05-22T21:16:16.316Z,24.80
2023-05-22T21:18:44.091Z,24.80
2023-05-22T21:21:11.800Z,24.80
2023-05-22T21:23:40.869Z,24.80
2023-05-22T21:26:08.617Z,24.80
2023-05-22T21:28:36.488Z,24.80
2023-05-22T21:31:04.316Z,24.80
2023-05-22T21:33:32.088Z,24.80
2023-05-22T21:35:59.797Z,24.80
2023-05-22T21:38:27.596Z,24.80
2023-05-22T21:40:56.657Z,24.70
2023-05-22T21:43:24.848Z,24.70
2023-05-22T21:45:52.566Z,24.70
2023-05-22T21:48:20.449Z,24.80
2023-05-22T21:50:48.540Z,24.70
2023-05-22T21:53:16.373Z,24.70
2023-05-22T21:55:44.132Z,24.70
2023-05-22T21:58:13.637Z,24.70
2023-05-22T22:00:41.830Z,24.70
2023-05-22T22:03:09.820Z,24.70
2023-05-22T22:05:37.623Z,24.70
2023-05-22T22:08:05.967Z,24.70
2023-05-22T22:10:33.770Z,24.70
2023-05-22T22:13:02.256Z,24.60
2023-05-22T22:15:31.504Z,24.70
2023-05-22T22:18:02.276Z,24.80
2023-05-22T22:20:44.072Z,24.80
2023-05-22T22:23:12.531Z,24.80
2023-05-22T22:25:40.305Z,24.80
2023-05-22T22:28:08.031Z,24.80
2023-05-22T22:30:37.051Z,24.80
2023-05-22T22:33:04.904Z,24.80
2023-05-22T22:35:32.883Z,24.70
2023-05-22T22:38:00.614Z,24.70
2023-05-22T22:40:28.459Z,24.70
2023-05-22T22:42:56.244Z,24.70
2023-05-22T22:45:23.996Z,24.70
2023-05-22T22:47:56.272Z,24.70
2023-05-22T22:50:24.939Z,24.70
2023-05-22T22:52:52.653Z,24.70
2023-05-22T22:55:20.605Z,24.70
2023-05-22T22:57:50.137Z,24.70
2023-05-22T23:00:20.055Z,24.70
2023-05-22T23:02:47.876Z,24.70
2023-05-22T23:05:20.208Z,24.70
2023-05-22T23:07:48.316Z,24.70
2023-05-22T23:10:16.264Z,24.70
2023-05-22T23:12:44.073Z,24.70
2023-05-22T23:15:13.383Z,24.70
2023-05-22T23:17:41.522Z,24.70
2023-05-22T23:20:10.119Z,24.60
2023-05-22T23:22:39.135Z,24.70
2023-05-22T23:25:07.776Z,24.70
2023-05-22T23:27:36.345Z,24.70
2023-05-22T23:30:04.313Z,24.70
2023-05-22T23:32:32.026Z,24.70
2023-05-22T23:34:59.775Z,24.70
2023-05-22T23:37:27.460Z,24.70
2023-05-22T23:39:56.738Z,24.60
2023-05-22T23:42:25.443Z,24.70
2023-05-22T23:44:53.171Z,24.70
2023-05-22T23:47:21.354Z,24.70
2023-05-22T23:49:49.092Z,24.70
2023-05-22T23:52:16.797Z,24.70
2023-05-22T23:54:44.559Z,24.70
2023-05-22T23:57:13.589Z,24.70
2023-05-22T23:59:41.659Z,24.70
